createdAt,value
2023-02-19T18:59:45.318Z,6.46
2023-02-19T19:03:05.331Z,6.31
2023-02-19T19:05:45.861Z,6.24
2023-02-19T19:12:09.112Z,6.05
2023-02-19T19:14:46.670Z,6.00
2023-02-19T19:17:19.607Z,5.94
2023-02-19T19:20:23.687Z,5.89
2023-02-19T19:23:03.164Z,5.86
2023-02-19T19:25:41.269Z,5.80
2023-02-19T19:28:18.076Z,5.76
2023-02-19T19:32:02.619Z,5.74
2023-02-19T19:34:42.192Z,5.67
2023-02-19T19:37:48.432Z,5.64
2023-02-19T19:41:14.117Z,5.60
2023-02-19T19:43:49.308Z,5.56
2023-02-19T19:46:28.152Z,5.52
2023-02-19T19:49:28.100Z,5.49
2023-02-19T19:55:30.097Z,5.42
2023-02-19T20:05:25.286Z,5.70
2023-02-19T20:08:05.047Z,5.75
2023-02-19T20:10:39.467Z,5.86
2023-02-19T20:13:40.255Z,5.84
2023-02-19T20:16:15.052Z,5.75
2023-02-19T20:18:55.974Z,5.67
2023-02-19T20:24:57.857Z,5.54
2023-02-19T20:27:32.689Z,5.52
2023-02-19T20:30:33.444Z,5.52
2023-02-19T20:33:06.194Z,5.54
2023-02-19T20:36:31.541Z,5.56
2023-02-19T20:39:09.787Z,5.60
2023-02-19T20:41:42.267Z,5.63
2023-02-19T20:44:48.701Z,5.66
2023-02-19T20:47:25.420Z,5.71
2023-02-19T20:49:59.373Z,5.73
2023-02-19T20:52:33.736Z,5.69
2023-02-19T20:55:08.773Z,5.63
2023-02-19T20:57:41.422Z,5.59
2023-02-19T21:00:17.167Z,5.55
2023-02-19T21:02:55.031Z,5.52
2023-02-19T21:05:33.467Z,5.50
2023-02-19T21:08:07.443Z,5.46
2023-02-19T21:11:37.686Z,5.44
2023-02-19T21:14:10.511Z,5.43
2023-02-19T21:16:43.790Z,5.43
2023-02-19T21:19:18.180Z,5.42
2023-02-19T21:21:53.255Z,5.42
2023-02-19T21:24:36.719Z,5.43
2023-02-19T21:27:12.387Z,5.41
2023-02-19T21:29:50.633Z,5.40
2023-02-19T21:33:16.578Z,5.37
2023-02-19T21:35:54.691Z,5.33
2023-02-19T21:38:51.669Z,5.29
2023-02-19T21:41:50.434Z,5.25
2023-02-19T21:44:47.783Z,5.16
2023-02-19T21:47:28.166Z,5.12
2023-02-19T21:50:27.048Z,5.06
2023-02-19T21:56:27.343Z,4.97
2023-02-19T21:59:04.653Z,4.93
2023-02-19T22:02:07.184Z,4.88
2023-02-19T22:04:42.436Z,4.90
2023-02-19T22:07:17.816Z,4.89
2023-02-19T22:09:52.806Z,4.88
2023-02-19T22:12:29.453Z,4.90
2023-02-19T22:15:02.678Z,4.88
2023-02-19T22:17:43.453Z,4.85
2023-02-19T22:21:04.527Z,4.84
2023-02-19T22:23:42.438Z,4.84
2023-02-19T22:26:22.823Z,4.80
2023-02-19T22:29:20.412Z,4.76
2023-02-19T22:31:56.777Z,4.74
2023-02-19T22:35:19.288Z,4.72
2023-02-19T22:37:51.523Z,4.72
2023-02-19T22:40:32.300Z,4.69
2023-02-19T22:43:58.619Z,4.69
2023-02-19T22:46:54.977Z,4.68
2023-02-19T22:49:28.768Z,4.66
2023-02-19T22:55:07.772Z,4.59
2023-02-19T22:58:29.448Z,4.57
2023-02-19T23:01:08.711Z,4.54
2023-02-19T23:07:15.121Z,4.54
2023-02-19T23:10:22.604Z,4.52
2023-02-19T23:13:05.496Z,4.54
2023-02-19T23:15:42.083Z,4.55
2023-02-19T23:18:19.764Z,4.59
2023-02-19T23:21:16.216Z,4.60
2023-02-19T23:24:16.071Z,4.62
2023-02-19T23:27:37.676Z,4.63
2023-02-19T23:30:12.830Z,4.65
2023-02-19T23:32:46.844Z,4.71
2023-02-19T23:36:10.284Z,4.74
2023-02-19T23:39:33.270Z,4.82
2023-02-19T23:45:18.136Z,4.91
2023-02-19T23:47:53.527Z,4.95
2023-02-19T23:50:28.238Z,4.97
2023-02-19T23:53:30.385Z,4.99
2023-02-19T23:56:06.057Z,5.01
2023-02-19T23:59:56.752Z,5.04
